Time;durP1;ratioP1;P1;durP2;ratioP2;P2;SDS_P1;SDS_P2;PMS_P1;PMS_P2;Temp;Humidity;BMP_temperature;BMP_pressure;BME280_temperature;BME280_humidity;BME280_pressure;Samples;Min_cycle;Max_cycle;Signal;HPM_P1;HPM_P2
2022/07/06 00:00:54;;;;;;;3.35;1.30;;;;;;;;;;5043103;28;20239;-67
2022/07/06 00:03:20;;;;;;;5.57;1.30;;;;;;;;;;5042445;28;20616;-66
2022/07/06 00:05:45;;;;;;;3.80;1.10;;;;;;;;;;5042988;28;20207;-67
2022/07/06 00:08:10;;;;;;;4.55;1.30;;;;;;;;;;5038847;28;20305;-66
2022/07/06 00:10:36;;;;;;;7.57;1.55;;;;;;;;;;5034732;28;20253;-67
2022/07/06 00:13:01;;;;;;;5.18;1.23;;;;;;;;;;5013860;28;20224;-65
2022/07/06 00:15:26;;;;;;;4.65;1.20;;;;;;;;;;5019456;28;20203;-66
2022/07/06 00:17:52;;;;;;;3.05;1.10;;;;;;;;;;5022789;28;20228;-66
2022/07/06 00:20:17;;;;;;;6.20;1.20;;;;;;;;;;5022788;28;20220;-67
2022/07/06 00:22:43;;;;;;;4.90;1.38;;;;;;;;;;5042360;28;20214;-67
2022/07/06 00:25:08;;;;;;;4.63;1.30;;;;;;;;;;5041936;28;20203;-67
2022/07/06 00:27:34;;;;;;;3.55;1.23;;;;;;;;;;5042813;28;20696;-67
2022/07/06 00:29:59;;;;;;;3.95;1.40;;;;;;;;;;5036577;28;20220;-67
2022/07/06 00:32:25;;;;;;;3.03;1.50;;;;;;;;;;5014713;28;20691;-67
2022/07/06 00:34:50;;;;;;;4.75;1.20;;;;;;;;;;5015471;28;20281;-67
2022/07/06 00:37:16;;;;;;;5.32;1.35;;;;;;;;;;5015523;28;20494;-67
2022/07/06 00:39:41;;;;;;;6.93;1.48;;;;;;;;;;5022482;28;20549;-67
2022/07/06 00:42:07;;;;;;;4.82;1.70;;;;;;;;;;5022170;28;20242;-67
2022/07/06 00:44:33;;;;;;;5.13;1.50;;;;;;;;;;5022967;28;20643;-67
2022/07/06 00:46:59;;;;;;;4.00;1.30;;;;;;;;;;5033744;28;20294;-67
2022/07/06 00:52:08;;;;;;;4.18;1.30;;;;;;;;;;5041748;28;20226;-67
2022/07/06 00:54:34;;;;;;;3.88;1.42;;;;;;;;;;5034675;28;20199;-67
2022/07/06 00:56:59;;;;;;;4.50;1.50;;;;;;;;;;5013791;28;20211;-67
2022/07/06 00:59:25;;;;;;;5.50;1.40;;;;;;;;;;4992336;28;20690;-67
2022/07/06 01:01:50;;;;;;;5.22;1.33;;;;;;;;;;5020785;28;20281;-68
2022/07/06 01:04:16;;;;;;;6.75;1.60;;;;;;;;;;5021826;28;20218;-67
2022/07/06 01:06:41;;;;;;;4.80;1.30;;;;;;;;;;5040831;28;20539;-67
2022/07/06 01:09:07;;;;;;;5.57;1.65;;;;;;;;;;5023739;28;20219;-67
2022/07/06 01:11:32;;;;;;;5.50;1.60;;;;;;;;;;5042189;28;20260;-67
2022/07/06 01:13:57;;;;;;;4.07;1.50;;;;;;;;;;5032640;28;20223;-67
2022/07/06 01:16:23;;;;;;;6.70;1.60;;;;;;;;;;5016866;28;20200;-67
2022/07/06 01:18:49;;;;;;;6.22;1.65;;;;;;;;;;5014690;28;20310;-67
2022/07/06 01:21:14;;;;;;;5.20;1.50;;;;;;;;;;5012794;28;20226;-67
2022/07/06 01:23:40;;;;;;;5.00;1.50;;;;;;;;;;5020531;28;20697;-67
2022/07/06 01:26:05;;;;;;;6.60;1.70;;;;;;;;;;5041778;28;20238;-65
2022/07/06 01:28:31;;;;;;;4.57;1.55;;;;;;;;;;5041256;28;20695;-67
2022/07/06 01:30:56;;;;;;;6.72;1.60;;;;;;;;;;5028651;28;20220;-67
2022/07/06 01:33:22;;;;;;;6.40;1.60;;;;;;;;;;5021408;28;20549;-68
2022/07/06 01:35:47;;;;;;;5.00;1.60;;;;;;;;;;5020893;28;20211;-66
2022/07/06 01:38:13;;;;;;;3.38;1.60;;;;;;;;;;5020128;28;20221;-65
2022/07/06 01:40:38;;;;;;;7.40;2.03;;;;;;;;;;5034375;28;20219;-67
2022/07/06 01:43:04;;;;;;;4.00;1.48;;;;;;;;;;5032307;28;20211;-67
2022/07/06 01:45:31;;;;;;;5.38;1.83;;;;;;;;;;5018100;28;20207;-67
2022/07/06 01:47:56;;;;;;;6.20;2.00;;;;;;;;;;5021618;28;20208;-67
2022/07/06 01:50:22;;;;;;;11.18;1.80;;;;;;;;;;5039631;28;20246;-67
2022/07/06 01:52:47;;;;;;;4.45;1.77;;;;;;;;;;5041260;28;20215;-67
2022/07/06 01:55:12;;;;;;;5.32;1.83;;;;;;;;;;5040879;28;20222;-67
2022/07/06 01:57:37;;;;;;;5.78;1.70;;;;;;;;;;5040767;28;20221;-66
2022/07/06 02:00:04;;;;;;;5.00;1.52;;;;;;;;;;5040770;28;20261;-67
2022/07/06 02:02:29;;;;;;;7.70;2.00;;;;;;;;;;5033873;28;20221;-67
2022/07/06 02:04:55;;;;;;;4.25;1.77;;;;;;;;;;5032631;28;20691;-67
2022/07/06 02:07:20;;;;;;;7.75;2.08;;;;;;;;;;5032903;28;20368;-66
2022/07/06 02:09:46;;;;;;;8.52;1.90;;;;;;;;;;5039801;28;20306;-66
2022/07/06 02:12:11;;;;;;;5.63;1.67;;;;;;;;;;5040519;28;20239;-66
2022/07/06 02:14:36;;;;;;;5.72;1.70;;;;;;;;;;5033183;28;20594;-66
2022/07/06 02:17:02;;;;;;;6.38;1.60;;;;;;;;;;5046192;28;20651;-66
2022/07/06 02:19:27;;;;;;;7.68;1.80;;;;;;;;;;5047720;28;20209;-66
2022/07/06 02:21:53;;;;;;;4.35;1.63;;;;;;;;;;5047667;28;20217;-66
2022/07/06 02:24:18;;;;;;;7.20;1.67;;;;;;;;;;5041830;28;20234;-66
2022/07/06 02:26:43;;;;;;;3.85;1.77;;;;;;;;;;5040089;28;20301;-65
2022/07/06 02:29:09;;;;;;;5.38;1.60;;;;;;;;;;5039350;28;20223;-65
2022/07/06 02:31:34;;;;;;;5.15;1.52;;;;;;;;;;5025877;28;20569;-66
2022/07/06 02:33:59;;;;;;;6.10;1.75;;;;;;;;;;5027739;28;20218;-66
2022/07/06 02:36:25;;;;;;;5.05;1.70;;;;;;;;;;5027368;28;20824;-66
2022/07/06 02:38:50;;;;;;;4.82;1.63;;;;;;;;;;5046538;28;20265;-66
2022/07/06 02:41:16;;;;;;;5.15;1.70;;;;;;;;;;5047213;28;20678;-66
2022/07/06 02:43:41;;;;;;;5.90;1.90;;;;;;;;;;5043852;28;20745;-66
2022/07/06 02:46:06;;;;;;;5.80;1.60;;;;;;;;;;5028756;28;20211;-66
2022/07/06 02:48:32;;;;;;;4.93;1.58;;;;;;;;;;5040166;28;20268;-67
2022/07/06 02:50:58;;;;;;;5.57;1.80;;;;;;;;;;5039623;28;20705;-65
2022/07/06 02:53:24;;;;;;;7.57;1.80;;;;;;;;;;5040546;28;20681;-65
2022/07/06 02:55:49;;;;;;;4.70;1.60;;;;;;;;;;5047849;28;20250;-65
2022/07/06 02:58:14;;;;;;;4.35;1.52;;;;;;;;;;5031814;28;20970;-66
2022/07/06 03:00:41;;;;;;;6.35;1.60;;;;;;;;;;5027798;28;20227;-66
2022/07/06 03:03:07;;;;;;;7.07;1.70;;;;;;;;;;5045927;28;20329;-66
2022/07/06 03:05:32;;;;;;;5.45;1.50;;;;;;;;;;5046815;28;20318;-66
2022/07/06 03:07:57;;;;;;;4.53;1.75;;;;;;;;;;5046400;28;20596;-66
2022/07/06 03:10:23;;;;;;;4.80;1.58;;;;;;;;;;5039230;28;20648;-67
2022/07/06 03:12:49;;;;;;;4.85;1.63;;;;;;;;;;5038939;28;20306;-63
2022/07/06 03:15:14;;;;;;;4.70;1.70;;;;;;;;;;5020229;28;20211;-63
2022/07/06 03:17:40;;;;;;;4.88;1.98;;;;;;;;;;5027227;28;20675;-63
2022/07/06 03:20:05;;;;;;;8.57;2.25;;;;;;;;;;5026311;28;20625;-63
2022/07/06 03:22:31;;;;;;;5.30;2.10;;;;;;;;;;5027845;28;20541;-63
2022/07/06 03:24:56;;;;;;;6.57;1.90;;;;;;;;;;5024925;28;20543;-63
2022/07/06 03:27:22;;;;;;;6.78;2.03;;;;;;;;;;5023279;28;20208;-63
2022/07/06 03:29:47;;;;;;;6.13;1.73;;;;;;;;;;5024279;28;20717;-63
2022/07/06 03:32:12;;;;;;;4.97;1.90;;;;;;;;;;5018633;28;20512;-63
2022/07/06 03:34:39;;;;;;;5.68;2.08;;;;;;;;;;5016025;28;20227;-63
2022/07/06 03:37:05;;;;;;;6.38;1.73;;;;;;;;;;5015783;28;20212;-63
2022/07/06 03:39:31;;;;;;;6.95;1.98;;;;;;;;;;5021574;28;20208;-63
2022/07/06 03:41:56;;;;;;;5.45;1.80;;;;;;;;;;5023567;28;20223;-63
2022/07/06 03:44:21;;;;;;;4.70;1.80;;;;;;;;;;5023889;28;20216;-63
2022/07/06 03:46:47;;;;;;;3.40;1.55;;;;;;;;;;5033689;28;20313;-63
2022/07/06 03:49:13;;;;;;;6.88;1.90;;;;;;;;;;5022506;28;20215;-63
2022/07/06 03:51:40;;;;;;;4.75;1.70;;;;;;;;;;5024209;28;20214;-63
2022/07/06 03:54:05;;;;;;;5.43;1.88;;;;;;;;;;5039841;28;20223;-64
2022/07/06 03:56:32;;;;;;;4.25;1.52;;;;;;;;;;5036123;28;20524;-64
2022/07/06 03:58:58;;;;;;;4.90;1.88;;;;;;;;;;5036107;28;20218;-64
2022/07/06 04:01:24;;;;;;;5.55;1.90;;;;;;;;;;5037575;28;20255;-65
2022/07/06 04:03:49;;;;;;;4.95;1.50;;;;;;;;;;5025111;28;20615;-66
2022/07/06 04:06:14;;;;;;;4.00;1.70;;;;;;;;;;5025150;28;20207;-66
2022/07/06 04:08:40;;;;;;;5.30;1.60;;;;;;;;;;5043269;28;20618;-65
2022/07/06 04:11:05;;;;;;;5.07;1.30;;;;;;;;;;5041902;28;20661;-65
2022/07/06 04:13:30;;;;;;;4.57;1.30;;;;;;;;;;5038224;28;20208;-65
2022/07/06 04:15:56;;;;;;;4.93;1.90;;;;;;;;;;5023410;28;20729;-66
2022/07/06 04:18:21;;;;;;;3.15;1.40;;;;;;;;;;5015352;28;20742;-66
2022/07/06 04:20:46;;;;;;;7.28;1.83;;;;;;;;;;5015472;28;20208;-66
2022/07/06 04:23:12;;;;;;;5.00;1.60;;;;;;;;;;5014595;28;20683;-66
2022/07/06 04:25:37;;;;;;;5.93;1.55;;;;;;;;;;5023073;28;20250;-65
2022/07/06 04:28:04;;;;;;;4.45;1.23;;;;;;;;;;5022848;28;20212;-66
2022/07/06 04:30:29;;;;;;;6.55;1.67;;;;;;;;;;5022839;28;20239;-66
2022/07/06 04:32:55;;;;;;;5.57;1.85;;;;;;;;;;5042374;28;20219;-66
2022/07/06 04:35:20;;;;;;;4.35;1.48;;;;;;;;;;5042383;28;20314;-66
2022/07/06 04:37:46;;;;;;;6.75;1.20;;;;;;;;;;5042051;28;20300;-65
2022/07/06 04:40:11;;;;;;;4.57;1.40;;;;;;;;;;5045933;28;20219;-65
2022/07/06 04:42:37;;;;;;;6.38;1.40;;;;;;;;;;5034353;28;20207;-65
2022/07/06 04:45:02;;;;;;;4.80;1.20;;;;;;;;;;5046622;28;20230;-65
2022/07/06 04:47:27;;;;;;;2.35;1.00;;;;;;;;;;5024120;28;20573;-64
2022/07/06 04:49:53;;;;;;;6.23;1.63;;;;;;;;;;5019587;28;20473;-61
2022/07/06 04:52:18;;;;;;;4.63;1.30;;;;;;;;;;5011294;28;20315;-62
2022/07/06 04:54:44;;;;;;;5.90;1.13;;;;;;;;;;5012472;28;20406;-63
2022/07/06 04:57:10;;;;;;;4.88;1.10;;;;;;;;;;5020642;28;20212;-64
2022/07/06 04:59:35;;;;;;;5.10;1.55;;;;;;;;;;5013269;28;20204;-64
2022/07/06 05:02:01;;;;;;;3.30;1.20;;;;;;;;;;5014900;28;20224;-67
2022/07/06 05:04:26;;;;;;;6.35;1.45;;;;;;;;;;5026758;28;20307;-65
2022/07/06 05:06:52;;;;;;;7.30;1.35;;;;;;;;;;5022156;28;20220;-65
2022/07/06 05:09:17;;;;;;;3.70;1.30;;;;;;;;;;5020740;28;20651;-64
2022/07/06 05:11:43;;;;;;;5.72;1.70;;;;;;;;;;5022610;28;20211;-65
2022/07/06 05:14:10;;;;;;;5.35;1.35;;;;;;;;;;5019534;28;20223;-65
2022/07/06 05:16:35;;;;;;;4.75;1.30;;;;;;;;;;5021804;28;20197;-66
2022/07/06 05:19:01;;;;;;;7.35;1.98;;;;;;;;;;5020155;28;20216;-64
2022/07/06 05:21:26;;;;;;;4.75;1.52;;;;;;;;;;5021427;28;20291;-65
2022/07/06 05:23:51;;;;;;;5.68;1.52;;;;;;;;;;5020817;28;20212;-64
2022/07/06 05:26:17;;;;;;;6.07;1.20;;;;;;;;;;5029675;28;20308;-64
2022/07/06 05:28:42;;;;;;;4.88;1.45;;;;;;;;;;5033343;28;20223;-66
2022/07/06 05:31:08;;;;;;;3.15;1.13;;;;;;;;;;5040369;28;20231;-68
2022/07/06 05:33:33;;;;;;;5.93;1.52;;;;;;;;;;5032644;28;20692;-73
2022/07/06 05:35:59;;;;;;;4.70;1.10;;;;;;;;;;5033457;28;20221;-62
2022/07/06 05:38:24;;;;;;;4.00;1.33;;;;;;;;;;5050947;28;20230;-63
2022/07/06 05:40:50;;;;;;;3.75;1.20;;;;;;;;;;5043114;28;20215;-63
2022/07/06 05:43:15;;;;;;;4.20;1.20;;;;;;;;;;5033119;28;20242;-62
2022/07/06 05:45:40;;;;;;;4.30;1.00;;;;;;;;;;5051243;28;20674;-63
2022/07/06 05:50:51;;;;;;;2.67;1.05;;;;;;;;;;5049379;28;20602;-63
2022/07/06 05:53:16;;;;;;;4.47;1.10;;;;;;;;;;5047072;28;20578;-62
2022/07/06 05:55:41;;;;;;;3.15;1.00;;;;;;;;;;5050748;28;20217;-63
2022/07/06 05:58:06;;;;;;;4.57;1.13;;;;;;;;;;5050585;28;20269;-63
2022/07/06 06:00:32;;;;;;;8.00;1.27;;;;;;;;;;5050662;28;20254;-63
2022/07/06 06:02:57;;;;;;;5.15;1.20;;;;;;;;;;5032482;28;20215;-62
2022/07/06 06:05:23;;;;;;;3.08;1.10;;;;;;;;;;5050550;28;20207;-63
2022/07/06 06:07:50;;;;;;;4.90;1.08;;;;;;;;;;5050857;28;20740;-63
2022/07/06 06:10:16;;;;;;;3.65;1.27;;;;;;;;;;5050011;28;20223;-63
2022/07/06 06:12:43;;;;;;;5.80;1.45;;;;;;;;;;5050967;28;20203;-63
2022/07/06 06:15:08;;;;;;;6.35;1.20;;;;;;;;;;5050262;28;20298;-63
2022/07/06 06:17:34;;;;;;;5.35;1.17;;;;;;;;;;5050189;28;20307;-63
2022/07/06 06:20:00;;;;;;;4.28;1.40;;;;;;;;;;5050907;28;20237;-63
2022/07/06 06:22:25;;;;;;;4.55;0.95;;;;;;;;;;5050268;28;20673;-63
2022/07/06 06:24:50;;;;;;;5.25;1.40;;;;;;;;;;5050277;28;20628;-63
2022/07/06 06:27:16;;;;;;;5.50;1.02;;;;;;;;;;5050573;28;20207;-63
2022/07/06 06:29:43;;;;;;;4.50;1.00;;;;;;;;;;5050514;28;20219;-63
2022/07/06 06:32:09;;;;;;;3.92;1.15;;;;;;;;;;5031901;28;20223;-62
2022/07/06 06:34:34;;;;;;;2.70;0.88;;;;;;;;;;5030740;28;20212;-63
2022/07/06 06:37:00;;;;;;;3.78;0.85;;;;;;;;;;5026599;28;20207;-63
2022/07/06 06:39:25;;;;;;;5.00;1.30;;;;;;;;;;5059899;28;20211;-62
2022/07/06 06:41:50;;;;;;;4.13;1.08;;;;;;;;;;5043991;28;20225;-62
2022/07/06 06:44:17;;;;;;;3.13;0.75;;;;;;;;;;5049510;28;21311;-63
2022/07/06 06:46:42;;;;;;;3.58;0.75;;;;;;;;;;5050689;28;20219;-63
2022/07/06 06:49:08;;;;;;;3.70;0.90;;;;;;;;;;5032237;28;20693;-63
2022/07/06 06:51:34;;;;;;;3.58;0.73;;;;;;;;;;5042176;28;20843;-63
2022/07/06 06:54:00;;;;;;;2.65;0.80;;;;;;;;;;5041069;28;20254;-63
2022/07/06 06:56:25;;;;;;;2.88;0.80;;;;;;;;;;5039473;28;20674;-63
2022/07/06 06:58:50;;;;;;;5.20;0.80;;;;;;;;;;5036572;28;20203;-63
2022/07/06 07:01:16;;;;;;;4.03;0.80;;;;;;;;;;5032271;28;20243;-63
2022/07/06 07:03:41;;;;;;;6.35;0.80;;;;;;;;;;5034151;28;20208;-63
2022/07/06 07:06:06;;;;;;;7.65;0.90;;;;;;;;;;5032703;28;20220;-63
2022/07/06 07:08:32;;;;;;;5.00;0.68;;;;;;;;;;5034244;28;20264;-63
2022/07/06 07:10:57;;;;;;;5.78;0.80;;;;;;;;;;5034271;28;20706;-63
2022/07/06 07:13:23;;;;;;;5.75;1.02;;;;;;;;;;5033064;28;20215;-63
2022/07/06 07:15:48;;;;;;;3.75;0.70;;;;;;;;;;5034060;28;20238;-63
2022/07/06 07:18:13;;;;;;;4.03;0.60;;;;;;;;;;5033622;28;20219;-63
2022/07/06 07:20:39;;;;;;;5.53;0.90;;;;;;;;;;5033099;28;20215;-63
2022/07/06 07:23:04;;;;;;;7.80;0.98;;;;;;;;;;5033203;28;20215;-64
2022/07/06 07:25:29;;;;;;;3.75;0.70;;;;;;;;;;5034010;28;20212;-63
2022/07/06 07:27:56;;;;;;;4.75;0.70;;;;;;;;;;5032002;28;20208;-63
2022/07/06 07:30:21;;;;;;;4.10;0.63;;;;;;;;;;5041324;28;20643;-63
2022/07/06 07:32:46;;;;;;;5.38;0.73;;;;;;;;;;5053640;28;20231;-63
2022/07/06 07:35:12;;;;;;;2.33;0.50;;;;;;;;;;5052404;28;20250;-63
2022/07/06 07:37:37;;;;;;;4.20;0.85;;;;;;;;;;5053169;28;20580;-63
2022/07/06 07:40:04;;;;;;;5.10;0.70;;;;;;;;;;5053123;28;20603;-63
2022/07/06 07:42:29;;;;;;;1.67;0.43;;;;;;;;;;5035606;28;20215;-62
2022/07/06 07:44:55;;;;;;;3.10;0.47;;;;;;;;;;5046004;28;20227;-61
2022/07/06 07:47:20;;;;;;;3.53;0.60;;;;;;;;;;5040485;28;20309;-63
2022/07/06 07:49:46;;;;;;;3.95;0.50;;;;;;;;;;5033337;28;20724;-62
2022/07/06 07:52:11;;;;;;;1.05;0.40;;;;;;;;;;5032394;28;20663;-62
2022/07/06 07:54:36;;;;;;;3.95;0.50;;;;;;;;;;5032822;28;20214;-62
2022/07/06 07:57:02;;;;;;;7.45;0.60;;;;;;;;;;5033227;28;20306;-63
2022/07/06 07:59:27;;;;;;;2.55;0.50;;;;;;;;;;5033504;28;20218;-63
2022/07/06 08:01:53;;;;;;;5.00;0.70;;;;;;;;;;5032371;28;20230;-63
2022/07/06 08:04:19;;;;;;;1.75;0.40;;;;;;;;;;5015155;28;20307;-62
2022/07/06 08:06:45;;;;;;;1.90;0.38;;;;;;;;;;5032897;28;20303;-62
2022/07/06 08:09:10;;;;;;;3.97;0.47;;;;;;;;;;5032109;28;20232;-63
2022/07/06 08:11:36;;;;;;;1.88;0.40;;;;;;;;;;5032750;28;20215;-62
2022/07/06 08:14:01;;;;;;;1.95;0.40;;;;;;;;;;5032871;28;20708;-63
2022/07/06 08:16:27;;;;;;;3.20;0.60;;;;;;;;;;5032206;28;20548;-64
2022/07/06 08:18:52;;;;;;;3.70;0.60;;;;;;;;;;5032979;28;20223;-64
2022/07/06 08:21:18;;;;;;;2.78;0.50;;;;;;;;;;5032069;28;20208;-63
2022/07/06 08:23:43;;;;;;;1.90;0.40;;;;;;;;;;5032220;28;20250;-63
2022/07/06 08:26:09;;;;;;;2.15;0.38;;;;;;;;;;5032430;28;20219;-64
2022/07/06 08:28:34;;;;;;;1.50;0.35;;;;;;;;;;5033317;28;20303;-63
2022/07/06 08:30:59;;;;;;;2.28;0.40;;;;;;;;;;5031805;28;20305;-64
2022/07/06 08:33:25;;;;;;;2.53;0.40;;;;;;;;;;5032157;28;20678;-64
2022/07/06 08:35:51;;;;;;;2.88;0.40;;;;;;;;;;5032303;28;20752;-64
2022/07/06 08:38:16;;;;;;;1.50;0.32;;;;;;;;;;5031394;28;20227;-63
2022/07/06 08:40:42;;;;;;;1.88;0.40;;;;;;;;;;5032717;28;20211;-64
2022/07/06 08:43:07;;;;;;;2.97;0.50;;;;;;;;;;5014662;28;20218;-64
2022/07/06 08:45:33;;;;;;;2.53;0.50;;;;;;;;;;5031676;28;20204;-63
2022/07/06 08:47:59;;;;;;;2.72;0.40;;;;;;;;;;5023375;28;20216;-61
2022/07/06 08:50:25;;;;;;;1.98;0.30;;;;;;;;;;5008970;28;20674;-62
2022/07/06 08:52:50;;;;;;;4.22;0.35;;;;;;;;;;5027155;28;20215;-61
2022/07/06 08:55:16;;;;;;;0.82;0.20;;;;;;;;;;5031721;28;20211;-63
2022/07/06 08:57:42;;;;;;;2.92;0.20;;;;;;;;;;5031671;28;20624;-62
2022/07/06 09:00:08;;;;;;;1.60;0.30;;;;;;;;;;5031568;28;20219;-62
2022/07/06 09:02:33;;;;;;;2.10;0.40;;;;;;;;;;5014313;28;20224;-62
2022/07/06 09:04:58;;;;;;;4.57;0.40;;;;;;;;;;5031235;28;20244;-61
2022/07/06 09:07:25;;;;;;;4.45;0.40;;;;;;;;;;5013569;28;20208;-61
2022/07/06 09:09:51;;;;;;;0.85;0.30;;;;;;;;;;5014435;28;20285;-62
2022/07/06 09:12:16;;;;;;;1.73;0.40;;;;;;;;;;5030887;28;20216;-62
2022/07/06 09:14:42;;;;;;;3.05;0.55;;;;;;;;;;5032190;28;20280;-62
2022/07/06 09:17:07;;;;;;;1.77;0.35;;;;;;;;;;5031297;28;20287;-62
2022/07/06 09:19:33;;;;;;;1.38;0.30;;;;;;;;;;5030958;28;20204;-62
2022/07/06 09:21:59;;;;;;;1.83;0.32;;;;;;;;;;5031401;28;20208;-62
2022/07/06 09:24:26;;;;;;;2.05;0.40;;;;;;;;;;5030735;28;20717;-62
2022/07/06 09:26:52;;;;;;;1.05;0.20;;;;;;;;;;5031182;28;20663;-61
2022/07/06 09:29:18;;;;;;;3.00;0.43;;;;;;;;;;5031323;28;20679;-63
2022/07/06 09:31:44;;;;;;;2.45;0.30;;;;;;;;;;5031607;28;20216;-61
2022/07/06 09:34:10;;;;;;;2.72;0.30;;;;;;;;;;5012405;28;20294;-62
2022/07/06 09:36:38;;;;;;;2.45;0.40;;;;;;;;;;5031126;28;20318;-62
2022/07/06 09:39:16;;;;;;;2.55;0.40;;;;;;;;;;5031368;28;20216;-61
2022/07/06 09:41:41;;;;;;;2.58;0.40;;;;;;;;;;5030756;28;20204;-61
2022/07/06 09:44:07;;;;;;;1.58;0.32;;;;;;;;;;5030871;28;20208;-63
2022/07/06 09:46:40;;;;;;;2.90;0.40;;;;;;;;;;5031157;28;20222;-62
2022/07/06 09:49:06;;;;;;;2.38;0.35;;;;;;;;;;5030458;28;20251;-62
2022/07/06 09:51:32;;;;;;;2.33;0.40;;;;;;;;;;5030761;28;20224;-62
2022/07/06 09:54:01;;;;;;;3.15;0.50;;;;;;;;;;5030734;28;20215;-61
2022/07/06 09:56:37;;;;;;;0.40;0.30;;;;;;;;;;5037223;28;20289;-62
2022/07/06 09:59:09;;;;;;;2.80;0.40;;;;;;;;;;5030707;28;20203;-62
2022/07/06 10:01:35;;;;;;;2.25;0.30;;;;;;;;;;5030003;28;20474;-62
2022/07/06 10:04:01;;;;;;;0.52;0.20;;;;;;;;;;5030536;28;20203;-63
2022/07/06 10:06:26;;;;;;;2.03;0.50;;;;;;;;;;5031195;28;20239;-62
2022/07/06 10:08:53;;;;;;;2.83;0.20;;;;;;;;;;5012869;28;20208;-63
2022/07/06 10:11:18;;;;;;;1.85;0.30;;;;;;;;;;5030542;28;20219;-62
2022/07/06 10:13:43;;;;;;;1.80;0.40;;;;;;;;;;5030692;28;20211;-62
2022/07/06 10:16:09;;;;;;;1.83;0.20;;;;;;;;;;5011986;28;20211;-62
2022/07/06 10:18:34;;;;;;;1.75;0.40;;;;;;;;;;5030821;28;20613;-62
2022/07/06 10:20:59;;;;;;;3.38;0.40;;;;;;;;;;5013202;28;20208;-63
2022/07/06 10:23:24;;;;;;;2.20;0.30;;;;;;;;;;5012326;28;20216;-62
2022/07/06 10:25:50;;;;;;;1.38;0.30;;;;;;;;;;5031062;28;20218;-62
2022/07/06 10:28:17;;;;;;;1.58;0.40;;;;;;;;;;5012718;28;20224;-62
2022/07/06 10:30:42;;;;;;;1.48;0.30;;;;;;;;;;5012253;28;20226;-62
2022/07/06 10:33:08;;;;;;;1.35;0.22;;;;;;;;;;5012551;28;20216;-62
2022/07/06 10:35:33;;;;;;;2.53;0.35;;;;;;;;;;5016253;28;20226;-62
2022/07/06 10:38:03;;;;;;;3.85;0.40;;;;;;;;;;5034407;28;20385;-62
2022/07/06 10:43:19;;;;;;;2.63;0.30;;;;;;;;;;5033303;28;20596;-63
2022/07/06 10:45:45;;;;;;;1.98;0.40;;;;;;;;;;5034574;28;20219;-63
2022/07/06 10:48:10;;;;;;;2.75;0.40;;;;;;;;;;5016719;28;20618;-64
2022/07/06 10:50:36;;;;;;;3.10;0.40;;;;;;;;;;5033946;28;20247;-63
2022/07/06 10:53:01;;;;;;;1.45;0.32;;;;;;;;;;5034073;28;20215;-63
2022/07/06 10:55:30;;;;;;;1.67;0.50;;;;;;;;;;5034325;28;20212;-62
2022/07/06 10:57:55;;;;;;;2.72;0.40;;;;;;;;;;5030488;28;20298;-62
2022/07/06 11:00:21;;;;;;;0.85;0.30;;;;;;;;;;5031237;28;20212;-62
2022/07/06 11:02:46;;;;;;;6.75;0.30;;;;;;;;;;5013982;28;20563;-62
2022/07/06 11:05:12;;;;;;;2.53;0.32;;;;;;;;;;5030463;28;20223;-63
2022/07/06 11:07:48;;;;;;;3.10;0.30;;;;;;;;;;5031605;28;20207;-63
2022/07/06 11:10:13;;;;;;;1.33;0.40;;;;;;;;;;5013178;28;20220;-63
2022/07/06 11:12:39;;;;;;;0.85;0.30;;;;;;;;;;5031114;28;20242;-62
2022/07/06 11:15:04;;;;;;;3.55;0.55;;;;;;;;;;5012865;28;20230;-64
2022/07/06 11:17:29;;;;;;;2.85;0.40;;;;;;;;;;5031910;28;20231;-62
2022/07/06 11:19:55;;;;;;;1.10;0.28;;;;;;;;;;5031205;28;20218;-62
2022/07/06 11:22:21;;;;;;;0.93;0.30;;;;;;;;;;5031197;28;20226;-62
2022/07/06 11:24:46;;;;;;;1.95;0.30;;;;;;;;;;5031402;28;20314;-63
2022/07/06 11:27:11;;;;;;;2.85;0.40;;;;;;;;;;5017838;28;20269;-62
2022/07/06 11:29:39;;;;;;;2.53;0.50;;;;;;;;;;5030979;28;20944;-62
2022/07/06 11:32:04;;;;;;;2.38;0.30;;;;;;;;;;5033731;28;20740;-62
2022/07/06 11:34:31;;;;;;;3.45;0.43;;;;;;;;;;5033240;28;20212;-62
2022/07/06 11:36:58;;;;;;;2.25;0.47;;;;;;;;;;5033799;28;20576;-62
2022/07/06 11:39:28;;;;;;;1.58;0.30;;;;;;;;;;5032324;28;20210;-62
2022/07/06 11:41:54;;;;;;;1.23;0.38;;;;;;;;;;5033162;28;20216;-62
2022/07/06 11:44:20;;;;;;;2.72;0.50;;;;;;;;;;5032941;28;20606;-62
2022/07/06 11:46:46;;;;;;;1.92;0.32;;;;;;;;;;5032235;28;20220;-63
2022/07/06 11:49:11;;;;;;;3.45;0.40;;;;;;;;;;5033108;28;20261;-61
2022/07/06 11:51:38;;;;;;;4.95;0.60;;;;;;;;;;5033256;28;20231;-62
2022/07/06 11:54:09;;;;;;;4.25;0.60;;;;;;;;;;5014543;28;20214;-62
2022/07/06 11:56:35;;;;;;;1.38;0.40;;;;;;;;;;5024586;28;20279;-61
2022/07/06 11:59:01;;;;;;;1.02;0.40;;;;;;;;;;5018490;28;20682;-64
2022/07/06 12:01:27;;;;;;;3.45;0.40;;;;;;;;;;5028110;28;20232;-61
2022/07/06 12:03:52;;;;;;;1.27;0.30;;;;;;;;;;5013774;28;20220;-61
2022/07/06 12:06:20;;;;;;;1.95;0.30;;;;;;;;;;5028129;28;20216;-61
2022/07/06 12:08:49;;;;;;;3.38;0.52;;;;;;;;;;5030831;28;20211;-61
2022/07/06 12:11:20;;;;;;;2.03;0.30;;;;;;;;;;5031736;28;20220;-62
2022/07/06 12:13:45;;;;;;;3.65;0.55;;;;;;;;;;5033129;28;20219;-61
2022/07/06 12:16:12;;;;;;;4.60;0.60;;;;;;;;;;5031999;28;20218;-61
2022/07/06 12:18:38;;;;;;;4.72;0.50;;;;;;;;;;5033041;28;20212;-61
2022/07/06 12:21:04;;;;;;;1.70;0.60;;;;;;;;;;5032321;28;20226;-61
2022/07/06 12:23:38;;;;;;;1.35;0.30;;;;;;;;;;5032280;28;20216;-61
2022/07/06 12:26:03;;;;;;;2.63;0.60;;;;;;;;;;5032148;28;20282;-62
2022/07/06 12:28:28;;;;;;;2.75;0.47;;;;;;;;;;5032230;28;20246;-61
2022/07/06 12:30:54;;;;;;;1.70;0.43;;;;;;;;;;5032585;28;20226;-61
2022/07/06 12:33:20;;;;;;;1.73;0.60;;;;;;;;;;5032297;28;20286;-62
2022/07/06 12:35:45;;;;;;;5.07;0.73;;;;;;;;;;5031760;28;20219;-61
2022/07/06 12:38:10;;;;;;;2.53;0.60;;;;;;;;;;5031892;28;20643;-62
2022/07/06 12:40:36;;;;;;;2.47;0.52;;;;;;;;;;5032143;28;20231;-61
2022/07/06 12:43:02;;;;;;;3.70;0.57;;;;;;;;;;5031587;28;20208;-62
2022/07/06 12:45:28;;;;;;;4.45;0.70;;;;;;;;;;5021969;28;20247;-61
2022/07/06 12:47:58;;;;;;;3.58;0.80;;;;;;;;;;5012724;28;20585;-61
2022/07/06 12:50:29;;;;;;;2.50;0.43;;;;;;;;;;5010859;28;20231;-62
2022/07/06 12:52:55;;;;;;;1.42;0.40;;;;;;;;;;5030422;28;20627;-61
2022/07/06 12:55:24;;;;;;;1.60;0.40;;;;;;;;;;5031430;28;20243;-61
2022/07/06 12:57:51;;;;;;;5.20;0.63;;;;;;;;;;5013998;28;20211;-61
2022/07/06 13:00:16;;;;;;;2.33;0.60;;;;;;;;;;5031579;28;20243;-61
2022/07/06 13:02:43;;;;;;;3.72;0.70;;;;;;;;;;5014390;28;20617;-61
2022/07/06 13:05:09;;;;;;;4.93;0.70;;;;;;;;;;5030858;28;20212;-60
2022/07/06 13:07:35;;;;;;;3.85;0.70;;;;;;;;;;5014263;28;20212;-61
2022/07/06 13:10:01;;;;;;;4.80;0.60;;;;;;;;;;5031020;28;20220;-63
2022/07/06 13:12:27;;;;;;;3.75;0.52;;;;;;;;;;5031414;28;20544;-61
2022/07/06 13:14:52;;;;;;;3.13;0.50;;;;;;;;;;5032081;28;20208;-62
2022/07/06 13:17:17;;;;;;;2.53;0.65;;;;;;;;;;5031360;28;20730;-62
2022/07/06 13:19:43;;;;;;;4.65;0.60;;;;;;;;;;5030939;28;20200;-61
2022/07/06 13:22:08;;;;;;;4.13;1.10;;;;;;;;;;5031106;28;20258;-62
2022/07/06 13:24:34;;;;;;;2.67;0.38;;;;;;;;;;5014051;28;20342;-61
2022/07/06 13:27:00;;;;;;;4.85;0.68;;;;;;;;;;5031201;28;20223;-61
2022/07/06 13:29:25;;;;;;;4.80;0.80;;;;;;;;;;5051233;28;20211;-61
2022/07/06 13:31:51;;;;;;;6.88;0.60;;;;;;;;;;5035471;28;20584;-61
2022/07/06 13:34:16;;;;;;;6.43;0.65;;;;;;;;;;5039137;28;20212;-61
2022/07/06 13:36:41;;;;;;;3.15;0.60;;;;;;;;;;5031299;28;20218;-61
2022/07/06 13:39:07;;;;;;;3.30;0.70;;;;;;;;;;5030358;28;20220;-61
2022/07/06 13:41:32;;;;;;;5.68;0.50;;;;;;;;;;5031367;28;20207;-61
2022/07/06 13:44:00;;;;;;;3.00;0.55;;;;;;;;;;5031561;28;20200;-61
2022/07/06 13:46:27;;;;;;;2.35;0.50;;;;;;;;;;5030252;28;20212;-60
2022/07/06 13:48:52;;;;;;;4.20;0.80;;;;;;;;;;5031341;28;20207;-61
2022/07/06 13:51:18;;;;;;;2.70;0.45;;;;;;;;;;5012839;28;20289;-61
2022/07/06 13:53:43;;;;;;;3.15;0.50;;;;;;;;;;5030305;28;20231;-61
2022/07/06 13:56:08;;;;;;;2.28;0.60;;;;;;;;;;5012816;28;20208;-61
2022/07/06 13:58:34;;;;;;;3.33;0.50;;;;;;;;;;5031533;28;20203;-61
2022/07/06 14:01:00;;;;;;;1.80;0.50;;;;;;;;;;5030424;28;20233;-60
2022/07/06 14:03:29;;;;;;;3.13;0.60;;;;;;;;;;5029986;28;20585;-61
2022/07/06 14:05:55;;;;;;;3.78;0.50;;;;;;;;;;5030766;28;20233;-61
2022/07/06 14:08:20;;;;;;;3.90;0.50;;;;;;;;;;5026457;28;20246;-61
2022/07/06 14:10:46;;;;;;;4.90;0.60;;;;;;;;;;5021195;28;20625;-61
2022/07/06 14:13:11;;;;;;;5.60;1.00;;;;;;;;;;5019654;28;20204;-62
2022/07/06 14:15:36;;;;;;;3.63;0.55;;;;;;;;;;5020314;28;20258;-60
2022/07/06 14:18:02;;;;;;;2.70;0.65;;;;;;;;;;5020458;28;20675;-60
2022/07/06 14:20:27;;;;;;;4.20;0.45;;;;;;;;;;5001915;28;20205;-61
2022/07/06 14:22:52;;;;;;;3.90;0.70;;;;;;;;;;5012653;28;20258;-61
2022/07/06 14:25:18;;;;;;;2.33;0.50;;;;;;;;;;5010353;28;20255;-61
2022/07/06 14:27:43;;;;;;;6.38;0.60;;;;;;;;;;5011439;28;20203;-61
2022/07/06 14:30:09;;;;;;;6.57;0.77;;;;;;;;;;5016517;28;20219;-61
2022/07/06 14:32:36;;;;;;;3.58;0.60;;;;;;;;;;5030923;28;20313;-61
2022/07/06 14:35:01;;;;;;;2.47;0.60;;;;;;;;;;5038504;28;20691;-61
2022/07/06 14:37:27;;;;;;;7.30;0.65;;;;;;;;;;5049952;28;20854;-61
2022/07/06 14:39:52;;;;;;;4.95;0.60;;;;;;;;;;5050510;28;20345;-61
2022/07/06 14:42:17;;;;;;;2.55;0.50;;;;;;;;;;5049778;28;20218;-61